createdAt,value
2023-04-16T00:01:03.682Z,2.65
2023-04-16T00:11:04.972Z,1.55
2023-04-16T00:21:06.214Z,1.88
2023-04-16T00:31:07.524Z,3.78
2023-04-16T00:41:08.851Z,2.13
2023-04-16T00:51:10.136Z,2.20
2023-04-16T01:01:11.468Z,2.05
2023-04-16T01:11:12.749Z,2.35
2023-04-16T01:21:14.043Z,2.70
2023-04-16T01:31:15.368Z,3.13
2023-04-16T01:41:16.669Z,2.20
2023-04-16T01:51:17.955Z,2.22
2023-04-16T02:01:19.359Z,3.45
2023-04-16T02:11:20.625Z,3.35
2023-04-16T02:21:21.876Z,2.75
2023-04-16T02:31:23.150Z,2.72
2023-04-16T02:41:24.421Z,2.17
2023-04-16T02:51:25.698Z,2.40
2023-04-16T03:01:26.941Z,2.80
2023-04-16T03:11:28.187Z,2.75
2023-04-16T03:21:29.437Z,2.38
2023-04-16T03:31:30.666Z,2.03
2023-04-16T03:41:32.001Z,2.72
2023-04-16T03:51:33.248Z,3.22
2023-04-16T04:01:34.519Z,3.20
2023-04-16T04:11:35.763Z,2.67
2023-04-16T04:21:37.017Z,2.75
2023-04-16T04:31:38.309Z,2.85
2023-04-16T04:41:39.582Z,3.40
2023-04-16T04:51:40.854Z,3.13
2023-04-16T05:01:42.198Z,3.15
2023-04-16T05:11:43.504Z,3.90
2023-04-16T05:21:44.762Z,3.38
2023-04-16T05:31:46.012Z,3.38
2023-04-16T05:41:47.281Z,3.90
2023-04-16T05:51:50.629Z,3.55
2023-04-16T06:01:52.197Z,2.80
2023-04-16T06:11:53.485Z,4.22
2023-04-16T06:21:54.702Z,3.60
2023-04-16T06:42:24.946Z,3.45
2023-04-16T06:52:26.199Z,3.58
2023-04-16T07:02:27.633Z,4.30
2023-04-16T07:12:28.984Z,3.47
2023-04-16T07:22:30.246Z,4.18
2023-04-16T07:32:31.538Z,3.72
2023-04-16T18:00:14.376Z,6.00
2023-04-16T19:34:02.338Z,5.97
2023-04-16T19:44:08.152Z,5.78
2023-04-16T19:54:11.573Z,6.60
2023-04-16T20:04:12.923Z,5.22
2023-04-16T20:14:14.779Z,5.95
2023-04-16T20:24:19.246Z,6.68
2023-04-16T20:34:20.619Z,6.25
2023-04-16T20:44:22.222Z,5.55
2023-04-16T20:54:23.671Z,6.95
2023-04-16T21:04:25.203Z,7.00
2023-04-16T21:14:28.430Z,7.93
2023-04-16T21:24:29.782Z,6.45
2023-04-16T21:34:31.052Z,6.63
2023-04-16T21:44:32.382Z,6.10
2023-04-16T21:54:34.358Z,6.60
2023-04-16T22:04:35.690Z,6.13
2023-04-16T22:14:36.986Z,7.20
2023-04-16T22:24:38.228Z,6.43
2023-04-16T22:34:45.580Z,5.85
2023-04-16T22:44:46.826Z,5.95
2023-04-16T22:54:48.078Z,7.07
2023-04-16T23:04:49.475Z,7.95
2023-04-16T23:14:50.925Z,6.25
2023-04-16T23:24:52.217Z,8.15
2023-04-16T23:34:53.641Z,6.60
2023-04-16T23:44:54.949Z,7.00
2023-04-16T23:54:56.250Z,6.65
